Time;durP1;ratioP1;P1;durP2;ratioP2;P2;SDS_P1;SDS_P2;PMS_P1;PMS_P2;Temp;Humidity;BMP_temperature;BMP_pressure;BME280_temperature;BME280_humidity;BME280_pressure;Samples;Min_cycle;Max_cycle;Signal;HPM_P1;HPM_P2
2023/05/11 00:01:30;;;;;;;3.35;2.47;;;;;;;;;;5136762;27;20054;-81
2023/05/11 00:03:56;;;;;;;2.53;2.20;;;;;;;;;;5139986;27;20031;-81
2023/05/11 00:06:21;;;;;;;3.33;2.60;;;;;;;;;;5140240;27;20056;-82
2023/05/11 00:08:47;;;;;;;3.30;2.55;;;;;;;;;;5158996;27;20105;-82
2023/05/11 00:11:12;;;;;;;4.93;2.22;;;;;;;;;;5158108;27;20113;-82
2023/05/11 00:13:38;;;;;;;2.50;2.30;;;;;;;;;;5122898;27;20026;-82
2023/05/11 00:16:03;;;;;;;2.97;2.20;;;;;;;;;;5139888;27;20034;-82
2023/05/11 00:18:29;;;;;;;2.80;2.30;;;;;;;;;;5122586;27;20035;-82
2023/05/11 00:20:55;;;;;;;2.30;2.10;;;;;;;;;;5158568;27;20465;-82
2023/05/11 00:23:20;;;;;;;2.75;2.53;;;;;;;;;;5123248;27;20022;-82
2023/05/11 00:25:46;;;;;;;3.05;2.47;;;;;;;;;;5158396;27;20083;-82
2023/05/11 00:28:12;;;;;;;2.28;2.05;;;;;;;;;;5139966;27;20019;-82
2023/05/11 00:30:39;;;;;;;2.90;2.60;;;;;;;;;;5158451;27;20054;-82
2023/05/11 00:33:04;;;;;;;2.97;2.13;;;;;;;;;;5139416;27;20061;-82
2023/05/11 00:35:31;;;;;;;2.67;2.20;;;;;;;;;;5157942;27;20022;-82
2023/05/11 00:37:57;;;;;;;2.88;2.38;;;;;;;;;;5158224;27;20047;-81
2023/05/11 00:40:22;;;;;;;3.22;2.40;;;;;;;;;;5122182;27;20033;-82
2023/05/11 00:42:47;;;;;;;3.40;2.72;;;;;;;;;;5122254;27;20461;-82
2023/05/11 00:45:13;;;;;;;2.83;2.50;;;;;;;;;;5122200;27;20027;-82
2023/05/11 00:47:39;;;;;;;3.00;2.45;;;;;;;;;;5105206;27;20139;-83
2023/05/11 00:50:06;;;;;;;2.65;2.45;;;;;;;;;;5139270;27;20027;-82
2023/05/11 00:52:31;;;;;;;2.50;2.15;;;;;;;;;;5122200;27;20027;-82
2023/05/11 00:54:56;;;;;;;3.28;2.67;;;;;;;;;;5121985;27;20414;-82
2023/05/11 00:57:22;;;;;;;3.00;2.45;;;;;;;;;;5139213;27;20033;-82
2023/05/11 00:59:48;;;;;;;2.75;2.47;;;;;;;;;;5121817;27;20083;-82
2023/05/11 01:02:13;;;;;;;3.38;2.42;;;;;;;;;;5157453;27;20026;-82
2023/05/11 01:04:38;;;;;;;4.47;2.50;;;;;;;;;;5121829;27;20030;-82
2023/05/11 01:07:28;;;;;;;3.90;2.63;;;;;;;;;;5157354;27;20031;-82
2023/05/11 01:10:27;;;;;;;2.47;2.28;;;;;;;;;;5139009;27;20027;-82
2023/05/11 01:13:08;;;;;;;3.80;2.60;;;;;;;;;;5137928;27;20053;-82
2023/05/11 01:15:54;;;;;;;4.43;2.42;;;;;;;;;;5157253;27;20029;-81
2023/05/11 01:19:02;;;;;;;2.97;2.30;;;;;;;;;;5121496;27;20549;-82
2023/05/11 01:21:30;;;;;;;4.50;2.20;;;;;;;;;;5072975;28;20028;-82
2023/05/11 01:24:28;;;;;;;2.42;2.20;;;;;;;;;;5073126;28;20028;-82
2023/05/11 01:27:14;;;;;;;2.58;2.25;;;;;;;;;;5114464;27;20027;-82
2023/05/11 01:29:46;;;;;;;2.80;2.20;;;;;;;;;;5138748;27;20052;-81
2023/05/11 01:32:18;;;;;;;2.53;2.30;;;;;;;;;;5138438;27;20030;-82
2023/05/11 01:34:44;;;;;;;3.13;2.10;;;;;;;;;;5138263;27;20366;-81
2023/05/11 01:37:14;;;;;;;2.40;2.20;;;;;;;;;;5138317;27;20105;-82
2023/05/11 01:39:55;;;;;;;2.90;2.40;;;;;;;;;;5121048;27;20083;-81
2023/05/11 01:42:27;;;;;;;2.97;2.30;;;;;;;;;;5138373;27;20476;-81
2023/05/11 01:44:54;;;;;;;3.65;2.20;;;;;;;;;;5138416;27;20019;-81
2023/05/11 01:47:22;;;;;;;2.55;2.22;;;;;;;;;;5121180;27;20022;-81
2023/05/11 01:49:48;;;;;;;2.83;2.22;;;;;;;;;;5120918;27;20109;-81
2023/05/11 01:52:14;;;;;;;2.65;2.03;;;;;;;;;;5138348;27;20058;-82
2023/05/11 01:54:40;;;;;;;2.80;2.20;;;;;;;;;;5156857;27;20061;-82
2023/05/11 01:57:06;;;;;;;2.28;2.00;;;;;;;;;;5137882;27;20150;-81
2023/05/11 01:59:33;;;;;;;2.28;2.08;;;;;;;;;;5138098;27;20389;-80
2023/05/11 02:02:00;;;;;;;2.45;2.03;;;;;;;;;;5156576;27;20026;-81
2023/05/11 02:04:27;;;;;;;2.65;2.03;;;;;;;;;;5137628;27;20034;-81
2023/05/11 02:06:53;;;;;;;2.97;1.98;;;;;;;;;;5137875;27;20384;-80
2023/05/11 02:09:20;;;;;;;2.13;1.92;;;;;;;;;;5138225;27;20406;-81
2023/05/11 02:11:46;;;;;;;3.50;2.08;;;;;;;;;;5120265;27;20058;-81
2023/05/11 02:14:12;;;;;;;2.15;1.95;;;;;;;;;;5120347;27;20022;-81
2023/05/11 02:16:38;;;;;;;2.33;2.00;;;;;;;;;;5156325;27;20030;-81
2023/05/11 02:19:05;;;;;;;2.70;2.20;;;;;;;;;;5137630;27;20483;-81
2023/05/11 02:21:31;;;;;;;1.70;1.60;;;;;;;;;;5137849;27;20026;-81
2023/05/11 02:24:02;;;;;;;1.80;1.70;;;;;;;;;;5137354;27;20030;-81
2023/05/11 02:26:27;;;;;;;2.47;2.08;;;;;;;;;;5137702;27;20061;-81
2023/05/11 02:28:53;;;;;;;2.30;1.70;;;;;;;;;;5137585;27;20074;-81
2023/05/11 02:31:20;;;;;;;3.47;2.22;;;;;;;;;;5137352;27;20106;-81
2023/05/11 02:33:48;;;;;;;2.60;1.85;;;;;;;;;;5119889;27;20071;-81
2023/05/11 02:36:17;;;;;;;1.83;1.70;;;;;;;;;;5137100;27;20469;-81
2023/05/11 02:38:45;;;;;;;2.00;1.80;;;;;;;;;;5137410;27;20109;-82
2023/05/11 02:41:13;;;;;;;2.20;1.95;;;;;;;;;;5119827;27;20476;-82
2023/05/11 02:43:46;;;;;;;3.33;2.00;;;;;;;;;;5137065;27;20018;-82
2023/05/11 02:46:15;;;;;;;2.30;1.90;;;;;;;;;;5119819;27;20023;-82
2023/05/11 02:48:43;;;;;;;2.15;1.85;;;;;;;;;;5119805;27;20040;-82
2023/05/11 02:51:10;;;;;;;2.00;1.80;;;;;;;;;;5137333;27;20030;-81
2023/05/11 02:53:36;;;;;;;1.92;1.80;;;;;;;;;;5136915;27;20074;-81
2023/05/11 02:56:02;;;;;;;2.00;1.90;;;;;;;;;;5136789;27;20041;-82
2023/05/11 02:58:28;;;;;;;2.30;2.00;;;;;;;;;;5120011;27;20018;-82
2023/05/11 03:00:55;;;;;;;3.00;1.85;;;;;;;;;;5136688;27;20124;-82
2023/05/11 03:03:20;;;;;;;2.35;1.98;;;;;;;;;;5137124;27;20102;-81
2023/05/11 03:05:45;;;;;;;2.30;1.88;;;;;;;;;;5136848;27;20134;-81
2023/05/11 03:08:11;;;;;;;2.13;1.92;;;;;;;;;;5136642;27;20022;-81
2023/05/11 03:10:37;;;;;;;1.77;1.67;;;;;;;;;;5136862;27;20121;-81
2023/05/11 03:13:03;;;;;;;2.58;1.98;;;;;;;;;;5136246;27;20081;-81
2023/05/11 03:15:28;;;;;;;1.70;1.60;;;;;;;;;;5154982;27;20026;-81
2023/05/11 03:17:54;;;;;;;2.00;1.90;;;;;;;;;;5136647;27;20049;-81
2023/05/11 03:20:21;;;;;;;1.73;1.63;;;;;;;;;;5136402;27;20038;-81
2023/05/11 03:22:47;;;;;;;2.22;1.90;;;;;;;;;;5119779;27;20418;-81
2023/05/11 03:25:14;;;;;;;2.35;1.92;;;;;;;;;;5119508;27;20086;-81
2023/05/11 03:27:40;;;;;;;2.25;1.70;;;;;;;;;;5136453;27;20030;-81
2023/05/11 03:30:08;;;;;;;5.47;2.08;;;;;;;;;;5136269;27;20045;-81
2023/05/11 03:32:34;;;;;;;2.22;1.70;;;;;;;;;;5118930;27;20030;-81
2023/05/11 03:35:00;;;;;;;2.17;1.98;;;;;;;;;;5118916;27;20026;-82
2023/05/11 03:37:26;;;;;;;4.43;2.00;;;;;;;;;;5136071;27;20122;-81
2023/05/11 03:39:55;;;;;;;2.00;1.90;;;;;;;;;;5136307;27;20050;-81
2023/05/11 03:42:21;;;;;;;2.55;1.75;;;;;;;;;;5118945;27;20480;-81
2023/05/11 03:44:48;;;;;;;2.30;2.10;;;;;;;;;;5154883;27;20023;-81
2023/05/11 03:47:15;;;;;;;2.17;1.90;;;;;;;;;;5136379;27;20072;-86
2023/05/11 03:49:41;;;;;;;3.00;1.90;;;;;;;;;;5136055;27;20026;-81
2023/05/11 03:52:07;;;;;;;2.10;1.90;;;;;;;;;;5135939;27;20026;-80
2023/05/11 03:54:32;;;;;;;2.17;1.67;;;;;;;;;;5135827;27;20437;-82
2023/05/11 03:56:58;;;;;;;1.90;1.80;;;;;;;;;;5135753;27;20030;-80
2023/05/11 03:59:23;;;;;;;3.45;2.20;;;;;;;;;;5154866;27;20042;-80
2023/05/11 04:01:51;;;;;;;3.20;1.98;;;;;;;;;;5119249;27;20086;-83
2023/05/11 04:04:17;;;;;;;2.15;1.95;;;;;;;;;;5155053;27;20029;-81
2023/05/11 04:06:43;;;;;;;3.65;2.00;;;;;;;;;;5154908;27;20400;-81
2023/05/11 04:09:08;;;;;;;4.70;2.50;;;;;;;;;;5154744;27;20046;-81
2023/05/11 04:11:37;;;;;;;5.95;2.53;;;;;;;;;;5118893;27;20059;-81
2023/05/11 04:14:03;;;;;;;3.55;2.30;;;;;;;;;;5119415;27;20473;-81
2023/05/11 04:16:29;;;;;;;7.05;2.67;;;;;;;;;;5137020;27;20037;-80
2023/05/11 04:18:55;;;;;;;6.82;2.97;;;;;;;;;;5154835;27;20050;-79
2023/05/11 04:21:20;;;;;;;4.18;2.33;;;;;;;;;;5136663;27;20458;-78
2023/05/11 04:23:46;;;;;;;3.88;2.75;;;;;;;;;;5137060;27;20059;-79
2023/05/11 04:26:12;;;;;;;4.65;2.53;;;;;;;;;;5155393;27;20055;-80
2023/05/11 04:28:37;;;;;;;3.00;2.30;;;;;;;;;;5136147;27;20026;-79
2023/05/11 04:31:03;;;;;;;5.25;2.85;;;;;;;;;;5118899;27;20044;-82
2023/05/11 04:33:28;;;;;;;3.67;2.50;;;;;;;;;;5136127;27;20109;-82
2023/05/11 04:35:54;;;;;;;5.75;2.95;;;;;;;;;;5136388;27;20426;-83
2023/05/11 04:38:20;;;;;;;7.20;2.92;;;;;;;;;;5118763;27;20569;-80
2023/05/11 04:40:46;;;;;;;5.03;2.85;;;;;;;;;;5154638;27;20019;-83
2023/05/11 04:43:12;;;;;;;6.80;3.20;;;;;;;;;;5118715;27;20035;-79
2023/05/11 04:45:38;;;;;;;6.70;3.35;;;;;;;;;;5135900;27;20450;-81
2023/05/11 04:48:05;;;;;;;4.70;2.78;;;;;;;;;;5137746;27;20118;-82
2023/05/11 04:50:30;;;;;;;6.72;3.55;;;;;;;;;;5138390;27;20027;-84
2023/05/11 04:52:56;;;;;;;14.75;4.45;;;;;;;;;;5103673;27;20035;-87
2023/05/11 04:55:21;;;;;;;9.48;3.85;;;;;;;;;;5156493;27;20091;-87
2023/05/11 04:57:46;;;;;;;11.07;4.47;;;;;;;;;;5156584;27;20482;-85
2023/05/11 05:00:12;;;;;;;19.95;5.43;;;;;;;;;;5120564;27;20388;-85
2023/05/11 05:02:37;;;;;;;15.15;6.05;;;;;;;;;;5138109;27;20073;-85
2023/05/11 05:05:03;;;;;;;18.90;6.45;;;;;;;;;;5156461;27;20026;-86
2023/05/11 05:07:29;;;;;;;22.20;6.35;;;;;;;;;;5137634;27;20030;-84
2023/05/11 05:09:54;;;;;;;15.85;6.00;;;;;;;;;;5156183;27;20027;-85
2023/05/11 05:12:19;;;;;;;20.38;5.78;;;;;;;;;;5155776;27;20055;-85
2023/05/11 05:14:45;;;;;;;16.20;5.57;;;;;;;;;;5137332;27;20102;-85
2023/05/11 05:17:10;;;;;;;18.25;5.38;;;;;;;;;;5155981;27;20072;-85
2023/05/11 05:19:36;;;;;;;15.80;5.22;;;;;;;;;;5155686;27;20026;-85
2023/05/11 05:22:01;;;;;;;15.65;5.35;;;;;;;;;;5155623;27;20386;-85
2023/05/11 05:24:27;;;;;;;9.07;4.95;;;;;;;;;;5137219;27;20031;-85
2023/05/11 05:26:52;;;;;;;9.07;4.68;;;;;;;;;;5119715;27;20022;-85
2023/05/11 05:29:17;;;;;;;8.85;4.55;;;;;;;;;;5155483;27;20103;-85
2023/05/11 05:31:43;;;;;;;10.77;4.75;;;;;;;;;;5155525;27;20054;-85
2023/05/11 05:34:08;;;;;;;8.90;4.18;;;;;;;;;;5119608;27;20038;-85
2023/05/11 05:36:34;;;;;;;7.88;4.35;;;;;;;;;;5155287;27;20034;-85
2023/05/11 05:38:59;;;;;;;10.07;4.07;;;;;;;;;;5155278;27;20388;-85
2023/05/11 05:41:25;;;;;;;8.40;4.13;;;;;;;;;;5155468;27;20034;-85
2023/05/11 05:43:50;;;;;;;7.68;4.03;;;;;;;;;;5136891;27;20329;-84
2023/05/11 05:46:16;;;;;;;8.18;3.90;;;;;;;;;;5155417;27;20449;-84
2023/05/11 05:48:41;;;;;;;8.63;3.83;;;;;;;;;;5136688;27;20023;-84
2023/05/11 05:51:07;;;;;;;7.13;3.60;;;;;;;;;;5119233;27;20059;-84
2023/05/11 05:53:32;;;;;;;7.55;3.78;;;;;;;;;;5119114;27;20091;-84
2023/05/11 05:55:58;;;;;;;9.10;3.83;;;;;;;;;;5136561;27;20033;-84
2023/05/11 05:58:23;;;;;;;5.95;2.90;;;;;;;;;;5154704;27;20429;-84
2023/05/11 06:00:49;;;;;;;6.95;3.53;;;;;;;;;;5154666;27;20445;-85
2023/05/11 06:03:14;;;;;;;6.43;3.13;;;;;;;;;;5136368;27;20044;-84
2023/05/11 06:05:40;;;;;;;5.03;2.88;;;;;;;;;;5136344;27;20047;-84
2023/05/11 06:08:05;;;;;;;3.38;2.92;;;;;;;;;;5154812;27;20149;-85
2023/05/11 06:10:31;;;;;;;6.15;3.50;;;;;;;;;;5154962;27;20075;-85
2023/05/11 06:12:56;;;;;;;3.80;3.00;;;;;;;;;;5136067;27;20054;-84
2023/05/11 06:15:22;;;;;;;6.97;3.33;;;;;;;;;;5118841;27;20033;-85
2023/05/11 06:17:47;;;;;;;6.03;3.53;;;;;;;;;;5136302;27;20031;-84
2023/05/11 06:20:13;;;;;;;4.55;3.20;;;;;;;;;;5154424;27;20414;-84
2023/05/11 06:22:38;;;;;;;4.38;2.80;;;;;;;;;;5135891;27;20030;-83
2023/05/11 06:25:04;;;;;;;4.00;2.80;;;;;;;;;;5135971;27;20207;-83
2023/05/11 06:27:30;;;;;;;4.22;3.10;;;;;;;;;;5154352;27;20038;-83
2023/05/11 06:29:55;;;;;;;4.60;3.00;;;;;;;;;;5154454;27;20389;-83
2023/05/11 06:32:21;;;;;;;3.13;2.80;;;;;;;;;;5118352;27;20031;-83
2023/05/11 06:34:46;;;;;;;3.78;2.78;;;;;;;;;;5101406;27;20037;-83
2023/05/11 06:37:19;;;;;;;3.97;2.97;;;;;;;;;;5118508;27;20031;-83
2023/05/11 06:39:44;;;;;;;2.95;2.50;;;;;;;;;;5135777;27;20060;-83
2023/05/11 06:42:10;;;;;;;4.95;2.75;;;;;;;;;;5154156;27;20122;-82
2023/05/11 06:44:35;;;;;;;2.80;2.50;;;;;;;;;;5135334;27;20031;-84
2023/05/11 06:47:01;;;;;;;4.68;2.90;;;;;;;;;;5154028;27;20019;-85
2023/05/11 06:49:26;;;;;;;3.63;2.70;;;;;;;;;;5118465;27;20062;-84
2023/05/11 06:51:51;;;;;;;3.38;2.42;;;;;;;;;;5154069;27;20031;-84
2023/05/11 06:54:17;;;;;;;3.67;2.90;;;;;;;;;;5153815;27;20023;-83
2023/05/11 06:56:42;;;;;;;3.15;2.53;;;;;;;;;;5154140;27;20035;-83
2023/05/11 06:59:07;;;;;;;3.08;2.58;;;;;;;;;;5154192;27;20031;-82
2023/05/11 07:01:33;;;;;;;4.20;2.83;;;;;;;;;;5154314;27;20118;-83
2023/05/11 07:03:58;;;;;;;3.30;2.80;;;;;;;;;;5153994;27;20495;-84
2023/05/11 07:06:24;;;;;;;3.50;2.85;;;;;;;;;;5135214;27;20095;-82
2023/05/11 07:08:49;;;;;;;4.75;3.00;;;;;;;;;;5135297;27;20033;-85
2023/05/11 07:11:15;;;;;;;3.35;2.78;;;;;;;;;;5153252;27;20027;-83
2023/05/11 07:13:41;;;;;;;4.03;2.90;;;;;;;;;;5135505;27;20489;-83
2023/05/11 07:16:06;;;;;;;3.88;2.70;;;;;;;;;;5118001;27;20027;-83
2023/05/11 07:18:32;;;;;;;6.32;2.72;;;;;;;;;;5153517;27;20030;-83
2023/05/11 07:20:57;;;;;;;3.90;3.10;;;;;;;;;;5117867;27;20022;-83
2023/05/11 07:23:22;;;;;;;2.63;2.35;;;;;;;;;;5117655;27;20026;-82
2023/05/11 07:25:48;;;;;;;3.50;2.72;;;;;;;;;;5117952;27;20072;-85
2023/05/11 07:28:13;;;;;;;3.25;2.90;;;;;;;;;;5118061;27;20096;-85
2023/05/11 07:30:39;;;;;;;5.35;3.10;;;;;;;;;;5134723;27;20394;-85
2023/05/11 07:33:05;;;;;;;3.53;2.80;;;;;;;;;;5117637;27;20335;-86
2023/05/11 07:35:30;;;;;;;3.65;2.75;;;;;;;;;;5153488;27;20360;-85
2023/05/11 07:37:56;;;;;;;3.20;2.90;;;;;;;;;;5134979;27;20406;-86
2023/05/11 07:40:21;;;;;;;3.35;2.88;;;;;;;;;;5117575;27;20038;-85
2023/05/11 07:42:47;;;;;;;3.30;2.78;;;;;;;;;;5117526;27;20026;-85
2023/05/11 07:45:12;;;;;;;3.70;3.15;;;;;;;;;;5134597;27;20035;-85
2023/05/11 07:47:37;;;;;;;3.58;2.88;;;;;;;;;;5153285;27;20022;-85
2023/05/11 07:50:03;;;;;;;3.67;3.20;;;;;;;;;;5134678;27;20033;-84
2023/05/11 07:52:29;;;;;;;4.18;2.90;;;;;;;;;;5134530;27;20449;-83
2023/05/11 07:54:55;;;;;;;3.67;3.10;;;;;;;;;;5117323;27;20042;-84
2023/05/11 07:57:20;;;;;;;3.20;2.90;;;;;;;;;;5153152;27;20058;-84
2023/05/11 07:59:46;;;;;;;3.08;2.78;;;;;;;;;;5134725;27;20046;-85
2023/05/11 08:02:11;;;;;;;3.35;2.72;;;;;;;;;;5153112;27;20031;-83
2023/05/11 08:04:37;;;;;;;3.47;2.90;;;;;;;;;;5134488;27;20061;-84
2023/05/11 08:07:03;;;;;;;4.57;3.35;;;;;;;;;;5153080;27;20027;-83
2023/05/11 08:09:28;;;;;;;3.97;3.08;;;;;;;;;;5134491;27;20102;-84
2023/05/11 08:11:55;;;;;;;3.95;3.08;;;;;;;;;;5134244;27;20095;-84
2023/05/11 08:14:21;;;;;;;4.45;3.10;;;;;;;;;;5153226;27;20030;-83
2023/05/11 08:16:48;;;;;;;3.45;2.88;;;;;;;;;;5117325;27;20038;-85
2023/05/11 08:19:13;;;;;;;3.92;3.13;;;;;;;;;;5117313;27;20064;-83
2023/05/11 08:21:39;;;;;;;3.78;3.20;;;;;;;;;;5134680;27;20034;-85
2023/05/11 08:24:04;;;;;;;10.80;3.15;;;;;;;;;;5120644;27;20102;-83
2023/05/11 08:26:30;;;;;;;3.20;2.63;;;;;;;;;;5157119;27;20114;-85
2023/05/11 08:28:55;;;;;;;2.80;2.58;;;;;;;;;;5138187;27;20134;-85
2023/05/11 08:31:21;;;;;;;3.25;2.83;;;;;;;;;;5138265;27;20030;-83
2023/05/11 08:33:46;;;;;;;3.20;2.90;;;;;;;;;;5137986;27;20034;-85
2023/05/11 08:36:12;;;;;;;3.90;2.78;;;;;;;;;;5156643;27;20026;-84
2023/05/11 08:38:37;;;;;;;3.92;3.22;;;;;;;;;;5137699;27;20437;-85
2023/05/11 08:41:03;;;;;;;3.00;2.70;;;;;;;;;;5120656;27;20068;-85
2023/05/11 08:43:29;;;;;;;3.80;2.88;;;;;;;;;;5137898;27;20038;-85
2023/05/11 08:45:57;;;;;;;3.35;3.05;;;;;;;;;;5138147;27;20362;-84
2023/05/11 08:48:23;;;;;;;3.38;2.92;;;;;;;;;;5138141;27;20011;-83
2023/05/11 08:50:48;;;;;;;3.70;3.10;;;;;;;;;;5137940;27;20440;-84
2023/05/11 08:53:14;;;;;;;3.45;2.88;;;;;;;;;;5138219;27;20058;-84
2023/05/11 08:55:40;;;;;;;3.78;2.88;;;;;;;;;;5156466;27;20113;-85
2023/05/11 08:58:06;;;;;;;4.82;2.95;;;;;;;;;;5121381;27;20079;-85
2023/05/11 09:00:33;;;;;;;3.42;3.03;;;;;;;;;;5137864;27;20018;-84
2023/05/11 09:02:58;;;;;;;4.32;3.28;;;;;;;;;;5120698;27;20018;-84
2023/05/11 09:05:25;;;;;;;3.72;3.10;;;;;;;;;;5120509;27;20110;-85
2023/05/11 09:07:54;;;;;;;3.65;3.10;;;;;;;;;;5156227;27;20069;-84
2023/05/11 09:10:19;;;;;;;3.53;3.17;;;;;;;;;;5137803;27;20050;-84
2023/05/11 09:12:46;;;;;;;3.53;3.20;;;;;;;;;;5137564;27;20111;-83
2023/05/11 09:15:12;;;;;;;4.25;3.78;;;;;;;;;;5137702;27;20035;-83
2023/05/11 09:17:37;;;;;;;4.15;3.47;;;;;;;;;;5137378;27;20039;-83
2023/05/11 09:20:08;;;;;;;4.75;3.70;;;;;;;;;;5119968;27;20062;-82
2023/05/11 09:22:44;;;;;;;4.10;3.70;;;;;;;;;;5156214;27;20019;-82
2023/05/11 09:25:15;;;;;;;4.03;3.63;;;;;;;;;;5137268;27;20019;-82
2023/05/11 09:27:42;;;;;;;4.38;3.63;;;;;;;;;;5120254;27;20444;-83
2023/05/11 09:30:18;;;;;;;4.57;4.05;;;;;;;;;;5137101;27;20050;-83
2023/05/11 09:32:50;;;;;;;4.70;4.20;;;;;;;;;;5137158;27;20026;-85
2023/05/11 09:35:21;;;;;;;6.80;4.90;;;;;;;;;;5155737;27;20122;-84
2023/05/11 09:38:02;;;;;;;5.22;4.20;;;;;;;;;;5120553;27;20050;-83
2023/05/11 09:40:28;;;;;;;6.50;4.50;;;;;;;;;;5136791;27;20117;-84
2023/05/11 09:42:54;;;;;;;6.50;4.80;;;;;;;;;;5155743;27;20030;-83
2023/05/11 09:45:40;;;;;;;5.35;4.57;;;;;;;;;;5136962;27;20030;-83
2023/05/11 09:48:07;;;;;;;5.40;4.60;;;;;;;;;;5155177;27;20480;-83
2023/05/11 09:50:34;;;;;;;7.32;4.72;;;;;;;;;;5119583;27;20046;-84
2023/05/11 09:52:59;;;;;;;6.00;4.70;;;;;;;;;;5136486;27;20106;-84
2023/05/11 09:55:25;;;;;;;5.50;4.72;;;;;;;;;;5119056;27;20213;-85
2023/05/11 09:57:56;;;;;;;5.80;4.70;;;;;;;;;;5136438;27;20385;-84
2023/05/11 10:00:21;;;;;;;7.28;4.95;;;;;;;;;;5154882;27;20023;-84
2023/05/11 10:03:04;;;;;;;5.68;4.78;;;;;;;;;;5155236;27;20030;-85
2023/05/11 10:05:34;;;;;;;5.75;4.68;;;;;;;;;;5136281;27;20026;-84
2023/05/11 10:08:01;;;;;;;4.93;4.20;;;;;;;;;;5154779;27;20031;-83
2023/05/11 10:10:29;;;;;;;4.97;4.38;;;;;;;;;;5119008;27;20030;-84
2023/05/11 10:12:56;;;;;;;4.55;4.07;;;;;;;;;;5136061;27;20042;-83
2023/05/11 10:15:27;;;;;;;4.82;4.22;;;;;;;;;;5136071;27;20030;-84
2023/05/11 10:17:57;;;;;;;4.78;3.58;;;;;;;;;;5136953;27;20026;-84
2023/05/11 10:20:24;;;;;;;5.28;4.00;;;;;;;;;;5136013;27;20027;-83
2023/05/11 10:22:54;;;;;;;4.18;3.75;;;;;;;;;;5136001;27;20122;-86
2023/05/11 10:25:23;;;;;;;4.78;3.58;;;;;;;;;;5118610;27;20027;-86
2023/05/11 10:27:50;;;;;;;4.03;3.63;;;;;;;;;;5135888;27;20103;-86
2023/05/11 10:30:15;;;;;;;3.83;3.10;;;;;;;;;;5135948;27;20022;-85
2023/05/11 10:32:43;;;;;;;4.97;3.42;;;;;;;;;;5135741;27;20027;-85
2023/05/11 10:35:09;;;;;;;3.58;3.05;;;;;;;;;;5135738;27;20046;-85
2023/05/11 10:37:34;;;;;;;3.83;3.25;;;;;;;;;;5154383;27;20073;-85
2023/05/11 10:40:00;;;;;;;4.88;3.00;;;;;;;;;;5154520;27;20105;-85
2023/05/11 10:42:55;;;;;;;3.15;2.85;;;;;;;;;;5118773;27;20113;-86
2023/05/11 10:45:35;;;;;;;3.30;2.55;;;;;;;;;;5134938;27;20030;-85
2023/05/11 10:48:33;;;;;;;3.47;2.53;;;;;;;;;;5154376;27;20449;-85
2023/05/11 10:51:36;;;;;;;2.70;2.38;;;;;;;;;;5154707;27;20118;-85
2023/05/11 10:54:02;;;;;;;2.50;2.22;;;;;;;;;;5135844;27;20011;-85
2023/05/11 10:56:45;;;;;;;5.07;2.60;;;;;;;;;;5154584;27;20023;-84
2023/05/11 10:59:13;;;;;;;6.25;3.45;;;;;;;;;;5135761;27;20030;-83
2023/05/11 11:01:40;;;;;;;7.38;3.55;;;;;;;;;;5154568;27;20022;-85
2023/05/11 11:04:11;;;;;;;11.38;4.43;;;;;;;;;;5135802;27;20019;-83
2023/05/11 11:06:38;;;;;;;5.57;3.40;;;;;;;;;;5154080;27;20047;-83
2023/05/11 11:09:07;;;;;;;9.18;3.47;;;;;;;;;;5154261;27;20027;-82
2023/05/11 11:11:38;;;;;;;8.35;3.53;;;;;;;;;;5117969;27;20038;-83
2023/05/11 11:14:05;;;;;;;9.10;3.83;;;;;;;;;;5134981;27;20042;-84
2023/05/11 11:16:37;;;;;;;7.90;3.47;;;;;;;;;;5135214;27;20440;-83
2023/05/11 11:19:31;;;;;;;5.03;3.53;;;;;;;;;;5135713;27;20110;-83
2023/05/11 11:21:58;;;;;;;4.68;3.08;;;;;;;;;;5154652;27;20429;-83
2023/05/11 11:24:35;;;;;;;4.60;2.67;;;;;;;;;;5136711;27;20175;-83
2023/05/11 11:27:02;;;;;;;5.43;2.92;;;;;;;;;;5134796;27;20114;-84
2023/05/11 11:29:28;;;;;;;4.20;2.70;;;;;;;;;;5117977;27;20027;-83
2023/05/11 11:31:54;;;;;;;4.38;2.55;;;;;;;;;;5134858;27;20486;-83
2023/05/11 11:34:28;;;;;;;6.70;2.90;;;;;;;;;;5117578;27;20062;-83
2023/05/11 11:36:54;;;;;;;3.72;2.38;;;;;;;;;;5153390;27;20038;-83
2023/05/11 11:39:25;;;;;;;3.47;2.15;;;;;;;;;;5153378;27;20079;-84
2023/05/11 11:42:05;;;;;;;3.53;2.33;;;;;;;;;;5135145;27;20031;-82
2023/05/11 11:44:32;;;;;;;3.72;2.00;;;;;;;;;;5135074;27;20026;-82
2023/05/11 11:47:18;;;;;;;3.95;2.30;;;;;;;;;;5153386;27;20043;-83
2023/05/11 11:49:47;;;;;;;2.75;2.08;;;;;;;;;;5117590;27;20034;-83
2023/05/11 11:52:15;;;;;;;2.63;1.90;;;;;;;;;;5134633;27;20023;-83
2023/05/11 11:54:43;;;;;;;3.92;1.95;;;;;;;;;;5134624;27;20397;-83
2023/05/11 11:57:33;;;;;;;3.92;2.08;;;;;;;;;;5136741;27;20033;-83
2023/05/11 11:59:59;;;;;;;2.80;1.70;;;;;;;;;;5157521;27;20439;-84
2023/05/11 12:02:26;;;;;;;1.77;1.63;;;;;;;;;;5138962;27;20042;-84
2023/05/11 12:05:17;;;;;;;2.38;1.88;;;;;;;;;;5104848;27;20060;-84
2023/05/11 12:07:44;;;;;;;2.13;1.70;;;;;;;;;;5157791;27;20028;-85
2023/05/11 12:10:12;;;;;;;2.50;1.83;;;;;;;;;;5121974;27;20037;-84
2023/05/11 12:12:38;;;;;;;2.38;1.70;;;;;;;;;;5138617;27;20039;-84
2023/05/11 12:15:05;;;;;;;2.60;1.70;;;;;;;;;;5139812;27;20063;-85
2023/05/11 12:17:33;;;;;;;1.75;1.65;;;;;;;;;;5121480;27;20041;-85
2023/05/11 12:20:15;;;;;;;1.55;1.45;;;;;;;;;;5138378;27;20392;-84
2023/05/11 12:22:41;;;;;;;1.60;1.50;;;;;;;;;;5157494;27;20038;-82
2023/05/11 12:25:07;;;;;;;1.85;1.50;;;;;;;;;;5157368;27;20050;-82
2023/05/11 12:27:33;;;;;;;3.60;1.80;;;;;;;;;;5138494;27;20438;-82
2023/05/11 12:29:59;;;;;;;2.60;1.80;;;;;;;;;;5157217;27;20035;-82
2023/05/11 12:32:28;;;;;;;1.60;1.48;;;;;;;;;;5121207;27;20026;-82
2023/05/11 12:35:02;;;;;;;2.08;1.50;;;;;;;;;;5121339;27;20507;-82
2023/05/11 12:37:29;;;;;;;4.10;1.90;;;;;;;;;;5157162;27;20052;-82
2023/05/11 12:39:56;;;;;;;2.28;1.75;;;;;;;;;;5121669;27;20483;-82
2023/05/11 12:42:21;;;;;;;2.10;1.80;;;;;;;;;;5156847;27;20041;-82
2023/05/11 12:44:47;;;;;;;2.40;1.90;;;;;;;;;;5138328;27;20373;-83
2023/05/11 12:47:12;;;;;;;1.88;1.73;;;;;;;;;;5138357;27;20050;-82
2023/05/11 12:49:40;;;;;;;2.25;1.58;;;;;;;;;;5138027;27;20037;-83
2023/05/11 12:52:08;;;;;;;1.60;1.50;;;;;;;;;;5120723;27;20022;-83
2023/05/11 12:54:37;;;;;;;1.50;1.40;;;;;;;;;;5138051;27;20426;-82
2023/05/11 12:57:04;;;;;;;4.00;1.35;;;;;;;;;;5120557;27;20103;-83
2023/05/11 12:59:40;;;;;;;1.50;1.40;;;;;;;;;;5137473;27;20171;-82
2023/05/11 13:02:20;;;;;;;2.90;1.23;;;;;;;;;;5156306;27;20022;-82
2023/05/11 13:04:46;;;;;;;1.30;1.20;;;;;;;;;;5137774;27;20114;-82
2023/05/11 13:07:14;;;;;;;1.42;1.02;;;;;;;;;;5103177;27;20548;-82
2023/05/11 13:09:40;;;;;;;1.20;1.08;;;;;;;;;;5137133;27;20030;-83
2023/05/11 13:12:09;;;;;;;1.20;1.10;;;;;;;;;;5137823;27;20062;-83
2023/05/11 13:14:34;;;;;;;0.95;0.93;;;;;;;;;;5155985;27;20045;-83
2023/05/11 13:17:00;;;;;;;1.77;1.17;;;;;;;;;;5137269;27;20524;-84
2023/05/11 13:19:29;;;;;;;1.17;1.08;;;;;;;;;;5155919;27;20024;-83
2023/05/11 13:21:56;;;;;;;0.93;0.90;;;;;;;;;;5156008;27;20121;-83
2023/05/11 13:24:22;;;;;;;0.80;0.80;;;;;;;;;;5137658;27;20038;-83
2023/05/11 13:26:47;;;;;;;1.95;1.00;;;;;;;;;;5137120;27;20083;-83
2023/05/11 13:29:13;;;;;;;1.25;1.00;;;;;;;;;;5137011;27;20034;-83
2023/05/11 13:31:46;;;;;;;1.17;1.00;;;;;;;;;;5136934;27;20142;-82
2023/05/11 13:34:12;;;;;;;1.45;0.95;;;;;;;;;;5138623;27;20103;-83
2023/05/11 13:36:38;;;;;;;1.27;0.80;;;;;;;;;;5119966;27;20385;-83
2023/05/11 13:39:04;;;;;;;0.98;0.98;;;;;;;;;;5119483;27;20117;-83
2023/05/11 13:41:30;;;;;;;1.52;0.90;;;;;;;;;;5136987;27;20034;-83
2023/05/11 13:43:55;;;;;;;0.80;0.80;;;;;;;;;;5136757;27;20441;-83
2023/05/11 13:46:21;;;;;;;0.80;0.80;;;;;;;;;;5137931;27;20023;-82
2023/05/11 13:48:46;;;;;;;0.75;0.75;;;;;;;;;;5120772;27;20031;-82
2023/05/11 13:51:12;;;;;;;0.93;0.90;;;;;;;;;;5103325;27;20022;-79
2023/05/11 13:53:37;;;;;;;1.67;0.90;;;;;;;;;;5136524;27;20034;-80
2023/05/11 13:56:03;;;;;;;0.82;0.82;;;;;;;;;;5102546;27;20031;-79
2023/05/11 13:58:28;;;;;;;0.85;0.85;;;;;;;;;;5102399;27;20437;-79
2023/05/11 14:00:54;;;;;;;1.27;0.85;;;;;;;;;;5119411;27;20041;-82
2023/05/11 14:03:20;;;;;;;1.10;0.95;;;;;;;;;;5120010;27;20038;-83
2023/05/11 14:05:47;;;;;;;0.80;0.80;;;;;;;;;;5119065;27;20030;-83
2023/05/11 14:08:13;;;;;;;1.20;1.00;;;;;;;;;;5135695;27;20044;-83
2023/05/11 14:10:38;;;;;;;0.80;0.80;;;;;;;;;;5154739;27;20031;-83
2023/05/11 14:13:05;;;;;;;0.90;0.90;;;;;;;;;;5136048;27;20085;-83
2023/05/11 14:15:31;;;;;;;0.80;0.80;;;;;;;;;;5119198;27;20194;-83
2023/05/11 14:17:56;;;;;;;0.82;0.82;;;;;;;;;;5119473;27;20505;-83
2023/05/11 14:20:22;;;;;;;0.80;0.80;;;;;;;;;;5153830;27;20034;-83
2023/05/11 14:22:47;;;;;;;1.05;0.93;;;;;;;;;;5135857;27;20228;-83
2023/05/11 14:25:13;;;;;;;1.08;1.08;;;;;;;;;;5135938;27;20193;-83
2023/05/11 14:27:38;;;;;;;1.27;1.00;;;;;;;;;;5136046;27;20456;-83
2023/05/11 14:30:05;;;;;;;1.00;1.00;;;;;;;;;;5118579;27;20042;-83
2023/05/11 14:32:30;;;;;;;0.90;0.90;;;;;;;;;;5154834;27;20019;-85
2023/05/11 14:34:56;;;;;;;1.92;1.00;;;;;;;;;;5155334;27;20126;-85
2023/05/11 14:37:21;;;;;;;0.90;0.90;;;;;;;;;;5119498;27;20072;-87
2023/05/11 14:39:46;;;;;;;1.25;1.10;;;;;;;;;;5155325;27;20113;-83
2023/05/11 14:42:12;;;;;;;1.00;0.90;;;;;;;;;;5115732;27;20030;-86
2023/05/11 14:44:38;;;;;;;1.00;1.00;;;;;;;;;;5152348;27;20062;-84
2023/05/11 14:47:04;;;;;;;0.90;0.90;;;;;;;;;;5134008;27;20050;-83